KDUC/DUC METAR and TAF weather

Enter ICAO airport designator
Station Type Date Time Source
KDUC METAR 2019/06/26 17:55 UTC NOAA

KDUC 261755Z AUTO 16010G21KT 10SM SCT033 30/21 A3013 RMK AO2 T02990215 10301 20214


Station Type Date Time Source
KDUC Decoded METAR 2019/06/26 17:55 UTC NOAA

Duncan, Halliburton Field Airport, OK, United States (KDUC) 34-28-15N 097-57-36W
Jun 26, 2019 - 01:55 PM EDT / 2019.06.26 1755 UTC
Wind: from the SSE (160 degrees) at 12 MPH (10 KT) gusting to 24 MPH (21 KT):0
Visibility: 10 mile(s):0
Sky conditions: partly cloudy
Temperature: 85.8 F (29.9 C)
Dew Point: 70.7 F (21.5 C)
Relative Humidity: 60%
Pressure (altimeter): 30.13 in. Hg (1020 hPa)
ob: KDUC 261755Z AUTO 16010G21KT 10SM SCT033 30/21 A3013 RMK AO2 T02990215 10301 20214
cycle: 18

Station Type Date Time Source
KDUC TAF UTC NOAA

Error!

Example: see airport list